CYYN

Swift Current Airport

Swift Current, Saskatchewan, Canada
METAR CYYN 230813Z AUTO 24010KT 9SM -SN BKN021 M17/M19 A3014 RMK SLP271
Observed Flight Rules
Feb-23 @ 08:13 UTC (13 minutes ago) Marginal Visual Flight Rules
Wind Visibility Clouds Conditions
240° at 10 knots 9 miles
  • Broken at 2,100' AGL
  • Light Snow
Temperatures Readings
Current -17°C / 1°F
Dewpoint -19°C / -2°F
Humidity 85%
Altimeter 30.14" Hg
Pressure 1027.1 hPa
Elevation 818
METAR CYYN 230813Z AUTO 24010KT 9SM -SN BKN021 M17/M19 A3014 RMK SLP271
Observed Flight Rules
Feb-23 @ 08:13 UTC
(13 minutes ago)
MVFR
Wind Visibility
240° at 10 knots 9 miles
Clouds
  • Broken at 2,100' AGL
Conditions
  • Light Snow
Temperature Dewpoint
-17°C / 1°F -19°C / -2°F
Humidity Altimeter Pressure
85% 30.14" Hg 1027.1 hPa